Time;durP1;ratioP1;P1;durP2;ratioP2;P2;SDS_P1;SDS_P2;PMS_P1;PMS_P2;Temp;Humidity;BMP_temperature;BMP_pressure;BME280_temperature;BME280_humidity;BME280_pressure;Samples;Min_cycle;Max_cycle;Signal;HPM_P1;HPM_P2
2023/03/06 00:00:53;;;;;;;11.70;10.10;;;6.70;35.00;;;;;;10322016;28;20226;-76
2023/03/06 00:05:57;;;;;;;11.73;10.23;;;6.70;35.10;;;;;;10324383;28;20235;-76
2023/03/06 00:11:02;;;;;;;15.57;10.17;;;6.70;35.10;;;;;;10322633;28;20229;-76
2023/03/06 00:16:08;;;;;;;15.43;9.43;;;6.70;35.10;;;;;;10321746;28;20633;-76
2023/03/06 00:21:11;;;;;;;13.13;10.67;;;6.70;36.00;;;;;;10316524;28;20231;-75
2023/03/06 00:26:16;;;;;;;12.37;10.70;;;6.70;35.10;;;;;;10321355;28;20223;-75
2023/03/06 00:31:19;;;;;;;13.57;10.43;;;6.70;35.10;;;;;;10333424;28;20227;-76
2023/03/06 00:36:22;;;;;;;12.53;10.13;;;6.60;35.00;;;;;;10335250;28;20696;-75
2023/03/06 00:41:27;;;;;;;11.53;9.53;;;6.60;35.20;;;;;;10335567;28;20226;-75
2023/03/06 00:46:30;;;;;;;10.53;8.87;;;6.60;35.30;;;;;;10332409;28;20234;-70
2023/03/06 00:51:33;;;;;;;13.23;10.57;;;6.60;35.30;;;;;;10333379;28;20226;-71
2023/03/06 00:56:37;;;;;;;13.67;10.10;;;6.60;35.20;;;;;;10330410;28;20632;-71
2023/03/06 01:01:41;;;;;;;11.37;10.03;;;6.60;35.30;;;;;;10332549;28;20233;-71
2023/03/06 01:06:44;;;;;;;12.97;10.20;;;6.60;35.30;;;;;;10332282;28;20238;-71
2023/03/06 01:11:48;;;;;;;15.97;10.27;;;6.60;35.30;;;;;;10329499;28;20737;-71
2023/03/06 01:16:51;;;;;;;14.87;11.20;;;6.60;35.30;;;;;;10328787;28;20231;-71
2023/03/06 01:21:54;;;;;;;15.10;11.57;;;6.60;35.30;;;;;;10327838;28;20711;-70
2023/03/06 01:26:59;;;;;;;12.97;10.23;;;6.60;35.30;;;;;;10333959;28;20817;-76
2023/03/06 01:32:02;;;;;;;13.60;10.17;;;6.60;35.40;;;;;;10335757;28;20222;-75
2023/03/06 01:37:05;;;;;;;10.87;8.60;;;6.60;35.40;;;;;;10335995;28;20775;-75
2023/03/06 01:42:10;;;;;;;13.70;9.60;;;6.70;35.50;;;;;;10330266;28;20524;-75
2023/03/06 01:47:13;;;;;;;11.87;10.03;;;6.70;35.50;;;;;;10328837;28;20219;-76
2023/03/06 01:52:18;;;;;;;10.93;9.03;;;6.70;35.50;;;;;;10330149;28;20242;-76
2023/03/06 01:57:26;;;;;;;11.53;10.33;;;6.70;35.50;;;;;;10329822;28;20237;-75
2023/03/06 02:02:29;;;;;;;11.47;9.90;;;6.70;35.60;;;;;;10327989;28;20696;-76
2023/03/06 02:07:34;;;;;;;11.80;10.07;;;6.70;35.40;;;;;;10326702;28;20235;-76
2023/03/06 02:12:41;;;;;;;11.97;10.57;;;6.70;35.40;;;;;;10327922;28;20723;-76
2023/03/06 02:17:45;;;;;;;14.20;10.67;;;6.70;35.50;;;;;;10326837;28;20238;-76
2023/03/06 02:22:54;;;;;;;11.50;9.70;;;6.70;35.40;;;;;;10327475;28;20234;-75
2023/03/06 02:27:58;;;;;;;12.67;9.93;;;6.70;35.50;;;;;;10326425;28;20234;-75
2023/03/06 02:33:02;;;;;;;11.80;9.77;;;6.70;35.50;;;;;;10326896;28;20290;-73
2023/03/06 02:38:10;;;;;;;11.93;10.07;;;6.70;35.40;;;;;;10327042;28;20237;-76
2023/03/06 02:43:17;;;;;;;11.40;9.47;;;6.70;35.60;;;;;;10327585;28;20597;-76
2023/03/06 02:48:21;;;;;;;13.30;10.70;;;6.70;35.50;;;;;;10327654;28;20227;-74
2023/03/06 02:53:24;;;;;;;11.17;9.50;;;6.60;35.50;;;;;;10325249;28;20647;-75
2023/03/06 02:58:29;;;;;;;12.20;9.03;;;6.60;35.50;;;;;;10325790;28;20238;-76
2023/03/06 03:03:33;;;;;;;10.50;9.00;;;6.60;35.70;;;;;;10325782;28;20226;-76
2023/03/06 03:08:36;;;;;;;13.13;10.20;;;6.60;35.60;;;;;;10326829;28;20474;-76
2023/03/06 03:13:41;;;;;;;9.40;8.33;;;6.60;35.60;;;;;;10326897;28;20219;-76
2023/03/06 03:18:46;;;;;;;11.60;9.53;;;6.60;35.60;;;;;;10326261;28;20627;-76
2023/03/06 03:23:50;;;;;;;13.30;10.23;;;6.60;35.60;;;;;;10325627;28;20313;-76
2023/03/06 03:28:54;;;;;;;10.70;8.60;;;6.60;35.50;;;;;;10326646;28;20750;-76
2023/03/06 03:33:57;;;;;;;12.60;10.03;;;6.60;35.50;;;;;;10325617;28;20233;-76
2023/03/06 03:39:00;;;;;;;13.93;10.10;;;6.60;35.50;;;;;;10325311;28;20226;-75
2023/03/06 03:44:05;;;;;;;13.17;10.60;;;6.60;35.50;;;;;;10324693;28;20215;-75
2023/03/06 03:49:08;;;;;;;9.97;8.93;;;6.60;35.60;;;;;;10324764;28;20231;-75
2023/03/06 03:54:11;;;;;;;13.97;10.40;;;6.50;35.50;;;;;;10327758;28;20222;-75
2023/03/06 03:59:16;;;;;;;11.20;10.00;;;6.60;35.70;;;;;;10325022;28;20237;-76
2023/03/06 04:04:19;;;;;;;12.73;10.50;;;6.50;35.70;;;;;;10324779;28;20230;-75
2023/03/06 04:09:22;;;;;;;13.30;10.27;;;6.60;35.70;;;;;;10324706;28;20707;-76
2023/03/06 04:14:27;;;;;;;11.17;9.63;;;6.50;35.60;;;;;;10322992;28;20230;-76
2023/03/06 04:19:30;;;;;;;12.70;10.97;;;6.50;35.70;;;;;;10322734;28;20234;-76
2023/03/06 04:24:33;;;;;;;10.30;8.73;;;6.50;35.60;;;;;;10323480;28;20253;-75
2023/03/06 04:29:38;;;;;;;11.90;10.33;;;6.50;35.70;;;;;;10326481;28;20226;-76
2023/03/06 04:34:41;;;;;;;12.50;9.50;;;6.50;35.80;;;;;;10323875;28;20230;-75
2023/03/06 04:39:44;;;;;;;12.10;9.23;;;6.50;35.70;;;;;;10324705;28;20642;-76
2023/03/06 04:44:48;;;;;;;16.40;11.63;;;6.50;35.80;;;;;;10319984;28;20230;-76
2023/03/06 04:49:52;;;;;;;15.53;12.13;;;6.50;35.80;;;;;;10319734;28;20759;-75
2023/03/06 04:54:55;;;;;;;18.43;13.27;;;6.40;35.70;;;;;;10322913;28;20302;-71
2023/03/06 04:59:59;;;;;;;18.77;13.23;;;6.40;35.70;;;;;;10317421;28;20231;-71
2023/03/06 05:05:03;;;;;;;16.47;13.07;;;6.30;35.80;;;;;;10318668;28;20233;-71
2023/03/06 05:10:07;;;;;;;16.30;12.50;;;6.30;35.80;;;;;;10316476;28;20230;-71
2023/03/06 05:15:13;;;;;;;15.27;13.30;;;6.30;36.00;;;;;;10318964;28;20230;-71
2023/03/06 05:20:17;;;;;;;17.80;14.50;;;6.30;36.10;;;;;;10322523;28;20723;-76
2023/03/06 05:25:20;;;;;;;14.70;12.03;;;6.30;36.00;;;;;;10328054;28;20229;-75
2023/03/06 05:30:25;;;;;;;18.47;13.70;;;6.20;35.90;;;;;;10324282;28;20285;-73
2023/03/06 05:35:28;;;;;;;19.90;14.97;;;6.20;35.90;;;;;;10324406;28;20241;-72
2023/03/06 05:40:31;;;;;;;21.63;13.63;;;6.20;35.90;;;;;;10328306;28;20362;-72
2023/03/06 05:45:36;;;;;;;16.83;13.03;;;6.10;36.00;;;;;;10323938;28;20578;-73
2023/03/06 05:50:40;;;;;;;17.67;13.57;;;6.10;36.20;;;;;;10326340;28;20674;-71
2023/03/06 05:55:43;;;;;;;15.57;11.30;;;6.20;36.30;;;;;;10321694;28;20281;-71
2023/03/06 06:00:48;;;;;;;18.47;13.53;;;6.20;36.20;;;;;;10325352;28;20250;-71
2023/03/06 06:05:52;;;;;;;16.10;13.07;;;6.20;36.40;;;;;;10324094;28;20591;-72
2023/03/06 06:10:58;;;;;;;15.20;12.97;;;6.20;36.20;;;;;;10323455;28;20242;-70
2023/03/06 06:16:06;;;;;;;17.03;12.70;;;6.20;36.50;;;;;;10322519;28;20238;-72
2023/03/06 06:21:13;;;;;;;19.90;12.47;;;6.20;36.60;;;;;;10325074;28;20691;-70
2023/03/06 06:26:16;;;;;;;15.57;12.07;;;6.20;37.00;;;;;;10318991;28;20222;-72
2023/03/06 06:31:21;;;;;;;19.27;16.23;;;6.20;37.80;;;;;;10322393;28;20230;-72
2023/03/06 06:36:24;;;;;;;15.83;13.83;;;6.30;37.20;;;;;;10320783;28;20334;-72
2023/03/06 06:41:27;;;;;;;15.93;13.37;;;6.40;36.90;;;;;;10321986;28;20238;-72
2023/03/06 06:46:53;;;;;;;19.97;15.33;;;6.30;36.60;;;;;;10323913;28;20322;-72
2023/03/06 06:52:17;;;;;;;16.17;12.53;;;6.30;36.70;;;;;;10320695;28;20757;-72
2023/03/06 06:57:20;;;;;;;16.20;13.47;;;6.30;36.50;;;;;;10320741;28;20231;-72
2023/03/06 07:02:25;;;;;;;17.97;13.33;;;6.30;36.60;;;;;;10321417;28;20231;-72
2023/03/06 07:07:28;;;;;;;17.53;13.33;;;6.20;36.80;;;;;;10320206;28;20242;-72
2023/03/06 07:12:31;;;;;;;16.33;13.57;;;6.20;36.70;;;;;;10319711;28;20233;-72
2023/03/06 07:17:39;;;;;;;16.20;13.47;;;6.20;36.60;;;;;;10320103;28;20790;-72
2023/03/06 07:22:45;;;;;;;19.93;14.10;;;6.20;36.80;;;;;;10321913;28;20711;-72
2023/03/06 07:27:54;;;;;;;17.97;14.10;;;6.20;36.90;;;;;;10319339;28;20226;-72
2023/03/06 07:32:59;;;;;;;15.97;13.10;;;6.20;36.90;;;;;;10317795;28;20227;-72
2023/03/06 07:38:02;;;;;;;17.17;13.90;;;6.20;37.20;;;;;;10315561;28;20234;-72
2023/03/06 07:43:06;;;;;;;18.17;14.93;;;6.30;37.00;;;;;;10319622;28;20219;-72
2023/03/06 07:48:22;;;;;;;20.57;14.80;;;6.30;36.90;;;;;;10309715;28;20233;-72
2023/03/06 07:53:26;;;;;;;18.57;14.73;;;6.20;37.10;;;;;;10308548;28;20285;-72
2023/03/06 07:58:29;;;;;;;18.70;15.50;;;6.30;37.20;;;;;;10310457;28;20552;-72
2023/03/06 08:03:34;;;;;;;20.33;15.37;;;6.20;37.20;;;;;;10309339;28;20237;-72
2023/03/06 08:08:38;;;;;;;21.70;15.97;;;6.30;37.60;;;;;;10309211;28;20231;-72
2023/03/06 08:13:42;;;;;;;20.03;16.03;;;6.40;37.50;;;;;;10308541;28;20552;-72
2023/03/06 08:18:46;;;;;;;20.97;17.10;;;6.40;37.40;;;;;;10307114;28;20234;-72
2023/03/06 08:23:50;;;;;;;23.27;17.23;;;6.50;37.60;;;;;;10311517;28;20226;-72
2023/03/06 08:28:55;;;;;;;22.53;17.97;;;6.50;37.50;;;;;;10309388;28;20926;-72
2023/03/06 08:34:02;;;;;;;22.07;17.47;;;6.60;37.40;;;;;;10308399;28;20236;-72
2023/03/06 08:39:06;;;;;;;19.77;15.73;;;6.60;37.70;;;;;;10309254;28;20732;-72
2023/03/06 08:44:10;;;;;;;20.83;15.50;;;6.70;37.50;;;;;;10312807;28;20584;-72
2023/03/06 08:49:15;;;;;;;19.10;14.43;;;6.70;37.00;;;;;;10319224;28;20729;-72
2023/03/06 08:54:18;;;;;;;17.50;14.33;;;6.80;36.80;;;;;;10325818;28;20226;-72
2023/03/06 08:59:21;;;;;;;18.70;15.10;;;6.80;36.50;;;;;;10325475;28;20300;-72
2023/03/06 09:04:25;;;;;;;15.93;13.03;;;6.90;36.50;;;;;;10322215;28;20227;-72
2023/03/06 09:09:28;;;;;;;16.90;14.00;;;6.80;36.20;;;;;;10323712;28;20235;-72
2023/03/06 09:14:32;;;;;;;16.37;13.80;;;6.90;36.30;;;;;;10323919;28;20234;-72
2023/03/06 09:19:37;;;;;;;20.13;14.00;;;6.90;36.30;;;;;;10320161;28;20227;-72
2023/03/06 09:24:40;;;;;;;19.57;15.50;;;7.00;36.90;;;;;;10318870;28;20234;-72
2023/03/06 09:29:43;;;;;;;17.80;14.37;;;7.00;36.20;;;;;;10315784;28;20250;-72
2023/03/06 09:34:48;;;;;;;17.33;14.60;;;7.00;36.20;;;;;;10314394;28;20227;-72
2023/03/06 09:39:52;;;;;;;17.77;15.20;;;7.00;36.20;;;;;;10314620;28;20223;-72
2023/03/06 09:44:58;;;;;;;21.17;15.80;;;7.00;36.20;;;;;;10315094;28;20227;-72
2023/03/06 09:50:13;;;;;;;19.10;14.40;;;7.00;36.30;;;;;;10316525;28;20277;-72
2023/03/06 09:55:20;;;;;;;20.43;15.67;;;7.10;36.20;;;;;;10314932;28;20507;-72
2023/03/06 10:00:27;;;;;;;19.20;14.87;;;7.10;36.20;;;;;;10312588;28;20250;-72
2023/03/06 10:05:40;;;;;;;19.23;15.33;;;7.20;36.10;;;;;;10315015;28;20226;-72
2023/03/06 10:10:48;;;;;;;18.77;14.97;;;7.20;35.90;;;;;;10312107;28;20238;-72
2023/03/06 10:15:59;;;;;;;19.03;14.77;;;7.20;36.20;;;;;;10313158;28;20728;-72
2023/03/06 10:21:08;;;;;;;19.83;14.57;;;7.20;36.20;;;;;;10313167;28;20230;-72
2023/03/06 10:26:24;;;;;;;20.43;15.63;;;7.20;36.20;;;;;;10313147;28;20233;-72
2023/03/06 10:31:28;;;;;;;18.67;14.80;;;7.20;36.20;;;;;;10311301;28;20227;-72
2023/03/06 10:36:33;;;;;;;17.80;14.47;;;7.30;36.20;;;;;;10314723;28;20817;-72
2023/03/06 10:41:37;;;;;;;19.10;14.87;;;7.30;36.00;;;;;;10315664;28;20711;-72
2023/03/06 10:46:42;;;;;;;17.73;14.30;;;7.40;35.80;;;;;;10310685;28;20231;-72
2023/03/06 10:51:56;;;;;;;14.83;13.23;;;7.40;35.90;;;;;;10313292;28;20230;-72
2023/03/06 10:57:18;;;;;;;17.27;14.17;;;7.40;35.70;;;;;;10314214;28;20241;-72
2023/03/06 11:02:29;;;;;;;17.63;14.27;;;7.40;35.50;;;;;;10312690;28;20234;-72
2023/03/06 11:07:36;;;;;;;16.53;13.13;;;7.40;35.60;;;;;;10312427;28;20235;-72
2023/03/06 11:12:40;;;;;;;16.83;13.00;;;7.50;35.80;;;;;;10311202;28;20229;-72
2023/03/06 11:17:51;;;;;;;14.10;12.60;;;7.50;35.80;;;;;;10311569;28;20235;-72
2023/03/06 11:22:59;;;;;;;16.60;12.70;;;7.60;35.70;;;;;;10310249;28;20623;-72
2023/03/06 11:28:08;;;;;;;16.10;12.77;;;7.70;35.50;;;;;;10310059;28;20230;-72
2023/03/06 11:33:23;;;;;;;16.23;12.63;;;7.70;35.40;;;;;;10311174;28;20279;-72
2023/03/06 11:38:39;;;;;;;14.67;11.80;;;7.80;34.70;;;;;;10312282;28;20230;-72
2023/03/06 11:43:51;;;;;;;13.70;12.13;;;7.80;34.80;;;;;;10307747;28;20226;-72
2023/03/06 11:49:01;;;;;;;12.33;11.07;;;7.90;35.00;;;;;;10313198;28;20281;-74
2023/03/06 11:54:06;;;;;;;14.13;10.73;;;8.00;34.60;;;;;;10312670;28;20227;-71
2023/03/06 11:59:47;;;;;;;12.90;11.17;;;8.00;34.70;;;;;;10319255;28;20564;-71
2023/03/06 12:05:00;;;;;;;12.87;11.30;;;8.10;34.50;;;;;;10317589;28;20241;-72
2023/03/06 12:10:17;;;;;;;12.90;10.13;;;8.10;34.20;;;;;;10317772;28;20223;-72
2023/03/06 12:15:29;;;;;;;12.13;10.67;;;8.10;34.00;;;;;;10303776;28;20580;-71
2023/03/06 12:20:52;;;;;;;12.73;11.27;;;8.10;34.20;;;;;;10311620;28;20727;-72
2023/03/06 12:26:04;;;;;;;10.13;9.07;;;8.20;33.80;;;;;;10309054;28;20226;-72
2023/03/06 12:31:26;;;;;;;9.30;8.37;;;8.30;33.90;;;;;;10306956;28;20620;-72
2023/03/06 12:36:37;;;;;;;10.27;9.17;;;8.40;34.30;;;;;;10314550;28;20296;-71
2023/03/06 12:42:02;;;;;;;10.17;8.87;;;8.60;33.90;;;;;;10312327;28;20238;-70
2023/03/06 12:47:15;;;;;;;10.47;8.87;;;8.70;32.50;;;;;;10315239;28;20718;-71
2023/03/06 12:52:24;;;;;;;9.87;8.00;;;8.90;33.20;;;;;;10314665;28;20227;-71
2023/03/06 12:57:34;;;;;;;9.23;7.50;;;9.00;33.00;;;;;;10313591;28;20235;-71
2023/03/06 13:03:04;;;;;;;9.40;7.83;;;9.00;32.70;;;;;;10316874;28;20580;-71
2023/03/06 13:08:41;;;;;;;8.43;7.53;;;8.90;32.70;;;;;;10312848;28;20234;-71
2023/03/06 13:13:49;;;;;;;8.83;7.93;;;8.80;32.40;;;;;;10308166;28;20750;-70
2023/03/06 13:18:57;;;;;;;8.90;7.60;;;8.70;33.20;;;;;;10311374;28;20231;-74
2023/03/06 13:24:05;;;;;;;8.50;7.00;;;8.70;33.70;;;;;;10311954;28;20734;-74
2023/03/06 13:29:38;;;;;;;8.43;7.53;;;8.80;33.30;;;;;;10310103;28;20557;-73
2023/03/06 13:34:45;;;;;;;7.43;6.73;;;9.00;32.00;;;;;;10288440;28;21000;-74
2023/03/06 13:40:13;;;;;;;7.93;7.00;;;9.10;33.50;;;;;;10316705;28;20246;-74
2023/03/06 13:45:23;;;;;;;8.70;7.80;;;9.20;32.10;;;;;;10314439;28;20647;-74
2023/03/06 13:50:40;;;;;;;8.23;6.90;;;9.30;33.00;;;;;;10319126;28;20712;-74
2023/03/06 13:55:51;;;;;;;7.30;6.67;;;9.40;31.80;;;;;;10317984;28;20234;-74
2023/03/06 14:01:22;;;;;;;6.07;5.47;;;9.40;31.70;;;;;;10318073;28;20234;-74
2023/03/06 14:07:18;;;;;;;6.73;6.03;;;9.40;31.20;;;;;;10317207;28;20676;-76
2023/03/06 14:12:25;;;;;;;7.53;6.57;;;9.20;30.30;;;;;;10272539;28;20271;-74
2023/03/06 14:17:30;;;;;;;6.80;6.20;;;8.90;32.30;;;;;;10319890;28;20257;-75
2023/03/06 14:22:35;;;;;;;7.43;6.60;;;8.70;33.40;;;;;;10317875;28;20234;-74
2023/03/06 14:27:44;;;;;;;7.27;6.57;;;8.40;33.70;;;;;;10318786;28;20230;-74
2023/03/06 14:32:48;;;;;;;7.80;7.10;;;8.20;34.20;;;;;;10317525;28;20258;-74
2023/03/06 14:37:56;;;;;;;7.40;6.70;;;8.00;34.50;;;;;;10318991;28;20517;-75
2023/03/06 14:43:27;;;;;;;7.03;6.07;;;7.80;35.30;;;;;;10315277;28;20227;-75
2023/03/06 14:48:39;;;;;;;6.97;6.10;;;7.60;36.00;;;;;;10318543;28;20437;-75
2023/03/06 14:53:46;;;;;;;7.40;6.57;;;7.50;36.20;;;;;;10318082;28;20231;-75
2023/03/06 14:58:55;;;;;;;6.70;6.07;;;7.50;36.00;;;;;;10317726;28;20223;-75
2023/03/06 15:04:00;;;;;;;8.03;6.40;;;7.50;36.40;;;;;;10318742;28;20234;-75
2023/03/06 15:09:09;;;;;;;7.67;6.90;;;7.50;36.00;;;;;;10314749;28;20977;-74
2023/03/06 15:14:17;;;;;;;8.40;7.07;;;7.40;36.10;;;;;;10320621;28;20254;-74
2023/03/06 15:19:22;;;;;;;7.20;6.03;;;7.40;36.40;;;;;;10313201;28;20231;-74
2023/03/06 15:24:35;;;;;;;6.60;6.00;;;7.40;36.50;;;;;;10315098;28;21154;-75
2023/03/06 15:29:39;;;;;;;7.40;6.57;;;7.50;36.90;;;;;;10316466;28;20246;-75
2023/03/06 15:34:42;;;;;;;8.00;7.23;;;7.60;36.00;;;;;;10313796;28;20234;-75
2023/03/06 15:40:05;;;;;;;8.67;7.87;;;7.60;36.00;;;;;;10317810;28;20223;-75
2023/03/06 15:45:15;;;;;;;7.67;6.93;;;7.60;36.20;;;;;;10317786;28;20230;-74
2023/03/06 15:50:21;;;;;;;8.20;7.43;;;7.60;35.90;;;;;;10319321;28;20603;-75
2023/03/06 15:55:26;;;;;;;12.43;10.27;;;7.60;35.90;;;;;;10318260;28;20719;-75
2023/03/06 16:00:36;;;;;;;11.87;9.50;;;7.60;36.00;;;;;;10316460;28;20612;-75
2023/03/06 16:05:40;;;;;;;10.67;9.10;;;7.50;36.00;;;;;;10314502;28;20223;-75
2023/03/06 16:10:45;;;;;;;11.80;10.03;;;7.60;35.80;;;;;;10318140;28;20227;-75
2023/03/06 16:15:50;;;;;;;12.97;10.00;;;7.60;35.90;;;;;;10316785;28;20234;-75
2023/03/06 16:20:53;;;;;;;12.60;10.97;;;7.70;35.80;;;;;;10316738;28;20704;-74
2023/03/06 16:25:58;;;;;;;18.83;14.03;;;7.70;35.60;;;;;;10313651;28;20786;-75
2023/03/06 16:31:01;;;;;;;13.23;11.83;;;7.80;35.60;;;;;;10316816;28;20927;-74
2023/03/06 16:36:11;;;;;;;11.63;9.33;;;7.80;35.60;;;;;;10305507;28;20231;-74
2023/03/06 16:41:16;;;;;;;11.30;9.17;;;7.70;35.80;;;;;;10318186;28;20222;-74
2023/03/06 16:46:22;;;;;;;9.87;8.33;;;7.80;35.90;;;;;;10311473;28;20253;-75
2023/03/06 16:51:25;;;;;;;10.30;7.73;;;7.80;35.70;;;;;;10316438;28;20238;-75
2023/03/06 16:56:29;;;;;;;9.43;7.70;;;7.80;35.50;;;;;;10313229;28;20878;-74
2023/03/06 17:01:32;;;;;;;9.80;8.80;;;7.80;35.60;;;;;;10313086;28;20237;-74
2023/03/06 17:06:36;;;;;;;10.03;8.50;;;7.80;35.50;;;;;;10314041;28;20238;-75
2023/03/06 17:11:42;;;;;;;11.27;9.43;;;7.80;35.30;;;;;;10319906;28;20227;-74
2023/03/06 17:16:45;;;;;;;10.27;9.20;;;7.70;35.20;;;;;;10325360;28;20239;-76
2023/03/06 17:21:48;;;;;;;10.27;8.80;;;7.70;35.30;;;;;;10323846;28;20700;-75
2023/03/06 17:26:52;;;;;;;10.07;9.07;;;7.70;35.30;;;;;;10318832;28;20230;-74
2023/03/06 17:31:56;;;;;;;9.73;8.80;;;7.60;35.20;;;;;;10323480;28;20227;-74
2023/03/06 17:37:00;;;;;;;8.33;7.47;;;7.60;35.20;;;;;;10320574;28;20251;-74
2023/03/06 17:42:06;;;;;;;11.90;10.80;;;7.60;35.30;;;;;;10317668;28;20995;-74
2023/03/06 17:47:09;;;;;;;12.73;10.67;;;7.60;35.20;;;;;;10319994;28;20223;-75
2023/03/06 17:52:12;;;;;;;13.37;11.97;;;7.60;35.10;;;;;;10316655;28;20413;-75
2023/03/06 17:57:16;;;;;;;15.93;13.70;;;7.70;35.30;;;;;;10322229;28;20234;-75
2023/03/06 18:02:19;;;;;;;19.07;17.07;;;7.60;35.20;;;;;;10320928;28;20241;-74
2023/03/06 18:07:23;;;;;;;19.23;15.93;;;7.60;35.20;;;;;;10318259;28;20610;-75
2023/03/06 18:12:28;;;;;;;14.50;13.00;;;7.70;35.40;;;;;;10310653;28;20237;-75
2023/03/06 18:17:31;;;;;;;16.63;12.93;;;7.70;35.30;;;;;;10319605;28;20711;-76
2023/03/06 18:22:34;;;;;;;13.37;11.23;;;7.80;35.60;;;;;;10315515;28;20223;-75
2023/03/06 18:27:38;;;;;;;11.97;10.10;;;7.80;35.50;;;;;;10317445;28;20245;-74
2023/03/06 18:32:41;;;;;;;13.27;11.07;;;7.80;35.50;;;;;;10319736;28;20237;-75
2023/03/06 18:37:45;;;;;;;15.87;11.60;;;7.80;35.40;;;;;;10319445;28;20227;-75
2023/03/06 18:42:51;;;;;;;19.77;14.03;;;7.90;35.40;;;;;;10318571;28;20239;-73
2023/03/06 18:47:55;;;;;;;21.53;16.27;;;7.90;35.30;;;;;;10319734;28;20238;-75
2023/03/06 18:52:58;;;;;;;14.40;11.67;;;7.90;35.10;;;;;;10315617;28;20231;-75
2023/03/06 18:58:02;;;;;;;12.40;10.83;;;7.80;35.00;;;;;;10319568;28;20235;-75
2023/03/06 19:03:05;;;;;;;10.83;9.57;;;7.80;35.30;;;;;;10322110;28;20227;-74
2023/03/06 19:08:09;;;;;;;11.40;10.20;;;7.80;35.40;;;;;;10315259;28;20645;-74
2023/03/06 19:13:14;;;;;;;24.10;17.37;;;7.70;35.30;;;;;;10317441;28;20716;-74
2023/03/06 19:18:26;;;;;;;32.87;24.97;;;7.70;35.20;;;;;;10318444;28;20230;-75
2023/03/06 19:23:29;;;;;;;23.40;16.87;;;7.70;35.30;;;;;;10317428;28;20610;-75
2023/03/06 19:28:34;;;;;;;15.97;12.27;;;7.60;35.30;;;;;;10317844;28;20723;-75
2023/03/06 19:33:38;;;;;;;18.13;13.67;;;7.60;35.40;;;;;;10316367;28;20239;-75
2023/03/06 19:38:41;;;;;;;18.43;13.30;;;7.70;35.50;;;;;;10316861;28;20230;-75
2023/03/06 19:43:50;;;;;;;14.83;13.10;;;7.70;35.50;;;;;;10315091;28;20726;-75
2023/03/06 19:48:56;;;;;;;12.80;10.90;;;7.60;35.30;;;;;;10315696;28;20235;-75
2023/03/06 19:53:59;;;;;;;15.87;13.07;;;7.60;35.30;;;;;;10308574;28;20399;-75
2023/03/06 19:59:03;;;;;;;16.43;13.30;;;7.60;35.40;;;;;;10313112;28;20223;-74
2023/03/06 20:04:07;;;;;;;15.77;11.53;;;7.60;35.40;;;;;;10311001;28;20241;-75
2023/03/06 20:09:11;;;;;;;16.10;13.87;;;7.60;35.30;;;;;;10311679;28;20233;-74
2023/03/06 20:14:17;;;;;;;13.87;10.17;;;7.60;35.40;;;;;;10310883;28;20218;-74
2023/03/06 20:19:20;;;;;;;12.13;10.83;;;7.60;35.10;;;;;;10311463;28;20703;-75
2023/03/06 20:24:24;;;;;;;11.47;10.27;;;7.50;35.00;;;;;;10312734;28;20234;-75
2023/03/06 20:29:31;;;;;;;9.23;8.20;;;7.40;34.90;;;;;;10310959;28;20318;-75
2023/03/06 20:34:34;;;;;;;9.53;8.63;;;7.40;34.90;;;;;;10310082;28;20223;-75
2023/03/06 20:39:37;;;;;;;8.83;7.93;;;7.40;35.10;;;;;;10310884;28;20234;-75
2023/03/06 20:44:42;;;;;;;9.10;8.20;;;7.30;34.90;;;;;;10312793;28;20285;-75
2023/03/06 20:49:45;;;;;;;9.57;8.57;;;7.30;34.90;;;;;;10315783;28;20226;-75
2023/03/06 20:54:48;;;;;;;9.20;8.10;;;7.30;35.10;;;;;;10315479;28;20222;-75
2023/03/06 20:59:53;;;;;;;11.13;8.13;;;7.20;35.00;;;;;;10320763;28;20246;-75
2023/03/06 21:04:58;;;;;;;9.07;8.17;;;7.20;35.00;;;;;;10312636;28;20215;-75
2023/03/06 21:10:01;;;;;;;7.57;6.87;;;7.20;35.10;;;;;;10316404;28;20223;-73
2023/03/06 21:15:07;;;;;;;8.20;7.40;;;7.20;35.20;;;;;;10318076;28;20223;-74
2023/03/06 21:20:11;;;;;;;10.10;9.10;;;7.20;35.10;;;;;;10317998;28;20711;-75
2023/03/06 21:25:14;;;;;;;13.80;11.30;;;7.20;35.20;;;;;;10318672;28;20435;-75
2023/03/06 21:30:19;;;;;;;16.93;12.23;;;7.20;35.10;;;;;;10317797;28;20226;-75
2023/03/06 21:35:22;;;;;;;14.83;11.57;;;7.20;35.10;;;;;;10316814;28;20235;-75
2023/03/06 21:40:25;;;;;;;10.73;9.17;;;7.20;35.10;;;;;;10318289;28;20293;-75
2023/03/06 21:45:30;;;;;;;8.90;8.00;;;7.20;35.10;;;;;;10316555;28;20238;-75
2023/03/06 21:50:34;;;;;;;11.60;8.30;;;7.20;35.10;;;;;;10318750;28;20610;-75
2023/03/06 21:55:39;;;;;;;8.53;7.63;;;7.20;35.20;;;;;;10315989;28;20266;-75
2023/03/06 22:00:43;;;;;;;9.37;8.37;;;7.20;35.20;;;;;;10321737;28;20223;-75
2023/03/06 22:05:46;;;;;;;9.10;7.97;;;7.20;35.20;;;;;;10318956;28;20227;-75
2023/03/06 22:10:50;;;;;;;9.53;8.53;;;7.20;35.10;;;;;;10320550;28;20253;-75
2023/03/06 22:15:54;;;;;;;9.37;8.47;;;7.20;35.20;;;;;;10321533;28;20767;-75
2023/03/06 22:20:57;;;;;;;11.37;9.80;;;7.20;35.20;;;;;;10321635;28;20304;-75
2023/03/06 22:26:02;;;;;;;9.80;8.70;;;7.20;35.10;;;;;;10319895;28;20230;-75
2023/03/06 22:31:09;;;;;;;10.90;8.17;;;7.20;35.10;;;;;;10320217;28;20737;-74
2023/03/06 22:36:14;;;;;;;9.03;8.13;;;7.10;35.10;;;;;;10318717;28;20594;-75
2023/03/06 22:41:18;;;;;;;8.80;7.97;;;7.10;35.10;;;;;;10318745;28;20230;-75
2023/03/06 22:46:24;;;;;;;8.87;8.07;;;7.10;35.00;;;;;;10320810;28;20235;-75
2023/03/06 22:51:28;;;;;;;8.80;7.90;;;7.00;34.90;;;;;;10321157;28;20257;-75
2023/03/06 22:56:31;;;;;;;10.07;8.77;;;7.00;34.90;;;;;;10315094;28;20231;-75
2023/03/06 23:01:35;;;;;;;10.50;8.43;;;6.90;35.00;;;;;;10318147;28;20232;-75
2023/03/06 23:06:41;;;;;;;9.43;8.23;;;6.90;35.00;;;;;;10319407;28;20233;-75
2023/03/06 23:11:44;;;;;;;9.73;8.73;;;6.90;35.00;;;;;;10318229;28;20227;-75
2023/03/06 23:16:49;;;;;;;9.13;8.10;;;6.90;35.10;;;;;;10318743;28;20226;-75
2023/03/06 23:21:52;;;;;;;9.73;8.73;;;6.80;34.90;;;;;;10317789;28;20777;-75
2023/03/06 23:26:55;;;;;;;9.70;8.13;;;6.80;35.10;;;;;;10316981;28;20605;-75
2023/03/06 23:32:00;;;;;;;9.17;8.27;;;6.80;35.20;;;;;;10320029;28;20219;-75
2023/03/06 23:37:03;;;;;;;9.67;8.13;;;6.80;35.10;;;;;;10318112;28;20223;-74
2023/03/06 23:42:06;;;;;;;9.83;8.30;;;6.80;35.20;;;;;;10318836;28;20255;-75
2023/03/06 23:47:11;;;;;;;9.73;8.53;;;6.80;35.00;;;;;;10317639;28;20674;-75
2023/03/06 23:52:14;;;;;;;10.00;7.73;;;6.80;35.00;;;;;;10318285;28;20238;-75
2023/03/06 23:57:17;;;;;;;8.40;7.60;;;6.90;35.00;;;;;;10318225;28;20230;-75
